createdAt,value
2023-03-20T00:01:34.180Z,-0.21
2023-03-20T00:04:07.537Z,-0.23
2023-03-20T00:06:43.051Z,-0.22
2023-03-20T00:09:16.033Z,-0.23
2023-03-20T00:11:52.811Z,-0.20
2023-03-20T00:14:27.274Z,-0.18
2023-03-20T00:17:00.374Z,-0.18
2023-03-20T00:19:33.463Z,-0.18
2023-03-20T00:22:06.660Z,-0.19
2023-03-20T00:24:39.742Z,-0.20
2023-03-20T00:27:15.093Z,-0.20
2023-03-20T00:29:48.161Z,-0.23
2023-03-20T00:32:21.408Z,-0.27
2023-03-20T00:34:54.466Z,-0.28
2023-03-20T00:37:29.111Z,-0.38
2023-03-20T00:40:03.249Z,-0.38
2023-03-20T00:42:36.410Z,-0.42
2023-03-20T00:45:16.228Z,-0.48
2023-03-20T00:47:54.196Z,-0.50
2023-03-20T00:50:29.898Z,-0.59
2023-03-20T00:53:03.454Z,-0.59
2023-03-20T00:55:36.849Z,-0.62
2023-03-20T00:58:14.425Z,-0.63
2023-03-20T01:00:48.031Z,-0.63
2023-03-20T01:03:23.008Z,-0.69
2023-03-20T01:05:57.582Z,-0.73
2023-03-20T01:08:30.697Z,-0.77
2023-03-20T01:11:03.666Z,-0.79
2023-03-20T01:13:38.149Z,-0.80
2023-03-20T01:16:21.393Z,-0.81
2023-03-20T01:18:54.954Z,-0.81
2023-03-20T01:21:27.870Z,-0.81
2023-03-20T01:24:00.818Z,-0.79
2023-03-20T01:26:38.264Z,-0.79
2023-03-20T01:29:22.511Z,-0.81
2023-03-20T01:31:56.568Z,-0.83
2023-03-20T01:34:31.177Z,-0.83
2023-03-20T01:37:04.532Z,-0.84
2023-03-20T01:39:39.888Z,-0.86
2023-03-20T01:42:17.337Z,-0.89
2023-03-20T01:44:50.450Z,-0.91
2023-03-20T01:47:26.288Z,-0.92
2023-03-20T01:50:35.354Z,-0.93
2023-03-20T01:53:21.861Z,-0.90
2023-03-20T01:58:42.650Z,-0.76
2023-03-20T02:01:16.898Z,-0.87
2023-03-20T02:03:52.752Z,-0.87
2023-03-20T02:06:30.181Z,-0.88
2023-03-20T02:09:05.588Z,-0.87
2023-03-20T02:11:43.389Z,-0.88
2023-03-20T02:14:17.196Z,-0.88
2023-03-20T02:16:57.035Z,-0.86
2023-03-20T02:19:38.079Z,-0.85
2023-03-20T02:22:29.931Z,-0.82
2023-03-20T02:25:28.605Z,-0.78
2023-03-20T02:28:15.548Z,-0.71
2023-03-20T02:31:12.011Z,-0.89
2023-03-20T02:37:46.427Z,-0.46
2023-03-20T02:40:25.398Z,-0.58
2023-03-20T02:43:02.233Z,-0.61
2023-03-20T02:45:36.668Z,-0.63
2023-03-20T02:48:20.570Z,-0.60
2023-03-20T02:50:57.163Z,-0.59
2023-03-20T02:53:36.150Z,-0.59
2023-03-20T02:56:16.806Z,-0.57
2023-03-20T02:58:55.234Z,-0.55
2023-03-20T03:01:33.359Z,-0.53
2023-03-20T03:04:13.306Z,-0.50
2023-03-20T03:06:48.968Z,-0.46
2023-03-20T03:09:25.255Z,-0.42
2023-03-20T03:12:01.199Z,-0.37
2023-03-20T03:14:39.778Z,-0.32
2023-03-20T03:17:16.730Z,-0.28
2023-03-20T03:23:59.156Z,-0.24
2023-03-20T03:27:17.747Z,-0.24
2023-03-20T03:30:27.872Z,-0.26
2023-03-20T03:37:53.125Z,-0.42
2023-03-20T03:41:30.395Z,-0.54
2023-03-20T03:44:46.180Z,-0.60
2023-03-20T03:48:03.386Z,-0.67
2023-03-20T03:51:10.890Z,-0.71
2023-03-20T03:54:47.133Z,-0.72
2023-03-20T03:58:40.513Z,-0.74
2023-03-20T04:01:22.495Z,-0.79
2023-03-20T04:04:04.801Z,-0.82
2023-03-20T04:06:37.749Z,-0.81
2023-03-20T04:09:12.112Z,-0.82
2023-03-20T04:11:54.449Z,-0.80
2023-03-20T04:14:30.748Z,-0.78
2023-03-20T04:17:04.726Z,-0.75
2023-03-20T04:19:38.194Z,-0.70
2023-03-20T04:22:11.254Z,-0.64
2023-03-20T04:24:44.366Z,-0.58
2023-03-20T04:27:21.125Z,-0.53
2023-03-20T04:29:55.155Z,-0.45
2023-03-20T04:32:53.792Z,-0.38
2023-03-20T04:35:34.861Z,-0.31
2023-03-20T04:38:12.777Z,-0.26
2023-03-20T04:40:47.821Z,-0.22
2023-03-20T04:43:20.873Z,-0.18
2023-03-20T04:45:53.846Z,-0.17
2023-03-20T04:48:27.976Z,-0.28
2023-03-20T04:51:01.408Z,-0.01
2023-03-20T04:53:36.025Z,0.06
2023-03-20T04:56:13.331Z,0.08
2023-03-20T04:58:46.373Z,0.15
2023-03-20T05:01:20.883Z,0.24
2023-03-20T05:03:55.889Z,0.31
2023-03-20T05:06:29.440Z,0.40
2023-03-20T05:09:04.156Z,0.52
2023-03-20T05:11:38.833Z,0.57
2023-03-20T05:14:14.484Z,0.67
2023-03-20T05:16:51.059Z,0.82
2023-03-20T05:19:31.755Z,0.96
2023-03-20T05:22:18.018Z,1.09
2023-03-20T05:24:52.908Z,1.23
2023-03-20T05:27:43.573Z,1.40
2023-03-20T05:30:36.511Z,1.56
2023-03-20T05:33:11.295Z,1.73
2023-03-20T05:38:35.080Z,2.13
2023-03-20T05:41:26.175Z,2.15
2023-03-20T05:44:09.057Z,2.26
2023-03-20T05:46:52.603Z,2.35
2023-03-20T05:49:43.248Z,2.48
2023-03-20T05:52:23.804Z,2.54
2023-03-20T05:55:11.122Z,2.56
2023-03-20T05:57:57.728Z,2.72
2023-03-20T06:00:35.240Z,2.92
2023-03-20T06:03:13.055Z,3.08
2023-03-20T06:05:53.562Z,3.18
2023-03-20T06:08:26.709Z,3.27
2023-03-20T06:11:00.566Z,3.30
2023-03-20T06:13:35.575Z,3.33
2023-03-20T06:16:12.209Z,3.48
2023-03-20T06:18:45.316Z,3.62
2023-03-20T06:21:18.333Z,3.79
2023-03-20T06:23:52.054Z,3.99
2023-03-20T06:26:26.720Z,4.34
2023-03-20T06:29:04.142Z,4.71
2023-03-20T06:31:38.083Z,5.00
2023-03-20T06:34:12.204Z,5.30
2023-03-20T06:36:48.662Z,5.32
2023-03-20T06:39:23.315Z,5.25
2023-03-20T06:41:57.420Z,5.24
2023-03-20T06:44:30.706Z,5.45
2023-03-20T06:47:11.552Z,5.44
2023-03-20T06:49:45.989Z,5.54
2023-03-20T06:52:22.595Z,5.77
2023-03-20T06:54:58.806Z,5.82
2023-03-20T06:57:33.927Z,5.88
2023-03-20T07:00:10.417Z,6.09
2023-03-20T07:02:43.870Z,6.26
2023-03-20T07:05:19.269Z,6.10
2023-03-20T07:07:53.101Z,5.93
2023-03-20T07:10:26.061Z,5.81
2023-03-20T07:12:58.968Z,5.98
2023-03-20T07:15:32.496Z,6.71
2023-03-20T07:18:06.213Z,7.83
2023-03-20T07:20:39.199Z,8.55
2023-03-20T07:23:12.340Z,8.90
2023-03-20T07:25:47.622Z,9.46
2023-03-20T07:28:21.610Z,10.15
2023-03-20T07:30:56.907Z,10.95
2023-03-20T07:33:30.275Z,11.57
2023-03-20T07:36:03.337Z,11.74
2023-03-20T07:38:36.743Z,11.85
2023-03-20T07:41:11.428Z,11.72
2023-03-20T07:43:47.859Z,12.19
2023-03-20T07:46:28.893Z,12.80
2023-03-20T07:49:02.117Z,13.53
2023-03-20T07:51:36.087Z,14.98
2023-03-20T07:54:09.095Z,16.04
2023-03-20T07:56:42.728Z,16.51
2023-03-20T07:59:19.032Z,17.22
2023-03-20T08:01:53.782Z,17.49
2023-03-20T08:04:26.823Z,18.30
2023-03-20T08:07:02.468Z,18.93
2023-03-20T08:09:35.877Z,19.54
2023-03-20T08:12:09.367Z,19.40
2023-03-20T08:14:43.901Z,19.31
2023-03-20T08:17:21.883Z,18.36
2023-03-20T08:19:54.233Z,18.21
2023-03-20T08:22:27.222Z,18.86
2023-03-20T08:25:00.162Z,19.37
2023-03-20T08:27:33.920Z,20.02
2023-03-20T08:30:09.045Z,19.65
2023-03-20T08:32:42.169Z,19.08
2023-03-20T08:35:31.825Z,19.24
2023-03-20T08:37:49.930Z,18.92
2023-03-20T08:40:22.951Z,18.18
2023-03-20T08:42:56.178Z,17.45
2023-03-20T08:45:29.324Z,16.85
2023-03-20T08:48:02.203Z,16.22
2023-03-20T08:50:35.575Z,16.02
2023-03-20T08:53:08.846Z,15.87
2023-03-20T08:55:41.899Z,15.50
2023-03-20T08:58:14.794Z,15.34
2023-03-20T09:00:48.700Z,16.04
2023-03-20T09:03:23.006Z,17.09
2023-03-20T09:05:55.869Z,18.12
2023-03-20T09:08:28.906Z,19.03
2023-03-20T09:11:02.040Z,19.58
2023-03-20T09:16:16.905Z,21.65
2023-03-20T09:18:50.212Z,22.71
2023-03-20T09:21:23.161Z,22.97
2023-03-20T09:23:56.253Z,23.88
2023-03-20T09:26:29.248Z,24.70
2023-03-20T09:29:02.868Z,25.26
2023-03-20T09:31:35.848Z,25.45
2023-03-20T09:34:08.873Z,25.02
2023-03-20T09:36:42.067Z,24.90
2023-03-20T09:39:14.968Z,24.43
2023-03-20T09:41:57.001Z,23.61
2023-03-20T09:44:35.789Z,23.58
2023-03-20T09:47:20.232Z,22.81
2023-03-20T09:49:57.151Z,22.59
2023-03-20T09:52:32.793Z,23.07
2023-03-20T09:55:09.549Z,21.67
2023-03-20T09:57:44.618Z,21.26
2023-03-20T10:00:22.461Z,22.53
2023-03-20T10:02:58.612Z,23.52
2023-03-20T10:05:35.053Z,23.86
2023-03-20T10:08:15.702Z,23.50
2023-03-20T10:10:52.718Z,23.54
2023-03-20T10:14:02.215Z,23.51
2023-03-20T10:16:43.744Z,22.92
2023-03-20T10:19:21.933Z,22.54
2023-03-20T10:21:57.858Z,22.75
2023-03-20T10:24:33.688Z,23.13
2023-03-20T10:27:09.840Z,23.08
2023-03-20T10:29:48.877Z,23.42
2023-03-20T10:32:26.456Z,23.71
2023-03-20T10:35:04.527Z,24.50
2023-03-20T10:37:45.764Z,24.95
2023-03-20T10:40:32.621Z,25.12
2023-03-20T10:43:08.901Z,25.28
2023-03-20T10:45:45.876Z,26.01
2023-03-20T10:48:24.095Z,26.58
2023-03-20T10:50:59.890Z,26.87
2023-03-20T10:53:38.088Z,26.72
2023-03-20T10:56:16.884Z,26.09
2023-03-20T10:58:52.258Z,26.61
2023-03-20T11:01:26.132Z,27.95
2023-03-20T11:03:59.637Z,28.73
2023-03-20T11:06:35.505Z,28.99
2023-03-20T11:09:19.356Z,28.62
2023-03-20T11:11:55.158Z,28.06
2023-03-20T11:14:30.985Z,27.36
2023-03-20T11:17:06.414Z,26.79
2023-03-20T11:19:41.109Z,26.62
2023-03-20T11:22:24.852Z,26.77
2023-03-20T11:25:01.717Z,26.42
2023-03-20T11:27:36.993Z,25.90
2023-03-20T11:30:15.898Z,26.18
2023-03-20T11:32:51.211Z,25.37
2023-03-20T11:35:31.194Z,24.95
2023-03-20T11:38:16.624Z,25.33
2023-03-20T11:40:52.020Z,25.20
2023-03-20T11:43:27.929Z,25.99
2023-03-20T11:46:04.633Z,26.59
2023-03-20T11:48:41.950Z,27.32
2023-03-20T11:51:18.115Z,26.90
2023-03-20T11:54:03.715Z,26.41
2023-03-20T11:56:37.976Z,26.28
2023-03-20T11:59:15.903Z,26.55
2023-03-20T12:01:52.819Z,26.10
2023-03-20T12:04:31.509Z,26.20
2023-03-20T12:07:09.715Z,26.51
2023-03-20T12:09:46.314Z,26.10
2023-03-20T12:15:10.601Z,25.40
2023-03-20T12:17:47.879Z,25.15
2023-03-20T12:20:28.763Z,24.64
2023-03-20T12:23:15.572Z,24.37
2023-03-20T12:25:55.060Z,24.69
2023-03-20T12:28:31.789Z,24.76
2023-03-20T12:31:10.838Z,23.92
2023-03-20T12:33:47.873Z,23.83
2023-03-20T12:36:25.277Z,22.94
2023-03-20T12:38:58.438Z,22.37
2023-03-20T12:41:34.597Z,22.83
2023-03-20T12:44:16.924Z,24.10
2023-03-20T12:46:55.262Z,24.57
2023-03-20T12:49:36.359Z,24.65
2023-03-20T12:52:14.851Z,24.80
2023-03-20T12:55:01.643Z,25.37
2023-03-20T12:57:39.220Z,25.04
2023-03-20T13:00:20.202Z,25.02
2023-03-20T13:02:59.589Z,25.75
2023-03-20T13:05:39.953Z,25.78
2023-03-20T13:08:42.361Z,24.56
2023-03-20T13:11:20.693Z,23.05
2023-03-20T13:13:56.704Z,22.18
2023-03-20T13:16:38.473Z,22.01
2023-03-20T13:19:15.448Z,21.29
2023-03-20T13:21:53.177Z,21.03
2023-03-20T13:27:38.521Z,21.94
2023-03-20T13:30:15.780Z,21.67
2023-03-20T13:32:54.536Z,21.51
2023-03-20T13:35:36.048Z,21.65
2023-03-20T13:38:15.899Z,21.87
2023-03-20T13:40:51.455Z,22.17
2023-03-20T13:43:30.947Z,22.33
2023-03-20T13:46:08.980Z,21.99
2023-03-20T13:48:44.146Z,21.39
2023-03-20T13:51:26.170Z,20.71
2023-03-20T13:54:05.666Z,19.95
2023-03-20T13:56:44.453Z,19.38
2023-03-20T13:59:49.826Z,19.09
2023-03-20T14:02:31.163Z,19.19
2023-03-20T14:05:08.856Z,19.00
2023-03-20T14:07:42.430Z,18.25
2023-03-20T14:13:22.377Z,16.12
2023-03-20T14:15:58.549Z,15.37
2023-03-20T14:18:32.912Z,15.06
2023-03-20T14:21:11.021Z,14.86
2023-03-20T14:23:47.274Z,14.53
2023-03-20T14:26:25.942Z,14.01
2023-03-20T14:29:02.893Z,13.55
2023-03-20T14:31:38.631Z,13.49
2023-03-20T14:34:18.389Z,13.29
2023-03-20T14:37:01.584Z,12.74
2023-03-20T14:39:44.859Z,12.26
2023-03-20T14:42:30.882Z,12.01
2023-03-20T14:45:18.812Z,11.78
2023-03-20T14:47:56.194Z,11.82
2023-03-20T14:50:32.596Z,11.96
2023-03-20T14:53:15.829Z,11.84
2023-03-20T14:56:02.203Z,11.79
2023-03-20T14:58:50.368Z,11.65
2023-03-20T15:04:40.664Z,11.20
2023-03-20T15:07:17.177Z,10.91
2023-03-20T15:09:52.876Z,10.95
2023-03-20T15:12:28.742Z,10.95
2023-03-20T15:15:03.533Z,10.85
2023-03-20T15:17:40.707Z,10.77
2023-03-20T15:20:17.619Z,10.76
2023-03-20T15:22:52.709Z,10.72
2023-03-20T15:25:28.343Z,10.78
2023-03-20T15:28:01.523Z,10.71
2023-03-20T15:30:37.184Z,10.79
2023-03-20T15:33:15.076Z,10.78
2023-03-20T15:35:48.510Z,10.77
2023-03-20T15:38:23.121Z,10.78
2023-03-20T15:40:56.393Z,10.61
2023-03-20T15:43:29.778Z,10.41
2023-03-20T15:46:17.485Z,10.21
2023-03-20T15:48:39.075Z,10.09
2023-03-20T15:51:13.562Z,10.06
2023-03-20T15:53:49.353Z,10.10
2023-03-20T15:56:25.315Z,9.95
2023-03-20T15:59:00.620Z,9.77
2023-03-20T16:01:35.636Z,9.66
2023-03-20T16:04:10.088Z,9.69
2023-03-20T16:06:49.544Z,9.75
2023-03-20T16:09:22.858Z,9.79
2023-03-20T16:12:00.901Z,9.76
2023-03-20T16:14:36.558Z,9.62
2023-03-20T16:17:09.805Z,9.59
2023-03-20T16:19:43.303Z,9.63
2023-03-20T16:22:23.742Z,9.57
2023-03-20T16:24:59.959Z,9.58
2023-03-20T16:27:35.965Z,9.66
2023-03-20T16:30:15.389Z,9.56
2023-03-20T16:32:51.392Z,9.40
2023-03-20T16:35:28.358Z,9.19
2023-03-20T16:38:03.352Z,9.04
2023-03-20T16:40:40.600Z,8.85
2023-03-20T16:43:20.666Z,8.57
2023-03-20T16:45:56.482Z,8.39
2023-03-20T16:48:33.222Z,8.13
2023-03-20T16:51:12.448Z,7.93
2023-03-20T16:53:48.936Z,7.91
2023-03-20T16:56:28.507Z,7.83
2023-03-20T16:59:03.009Z,7.75
2023-03-20T17:01:43.278Z,7.61
2023-03-20T17:04:23.020Z,7.49
2023-03-20T17:06:58.217Z,7.41
2023-03-20T17:09:35.052Z,7.42
2023-03-20T17:12:16.353Z,7.46
2023-03-20T17:14:49.756Z,7.45
2023-03-20T17:17:25.144Z,7.41
2023-03-20T17:20:02.876Z,7.36
2023-03-20T17:22:38.861Z,7.44
2023-03-20T17:25:13.500Z,7.59
2023-03-20T17:27:48.370Z,7.70
2023-03-20T17:30:24.004Z,7.66
2023-03-20T17:32:57.170Z,7.54
2023-03-20T17:35:30.412Z,7.54
2023-03-20T17:38:03.430Z,7.59
2023-03-20T17:40:36.548Z,7.64
2023-03-20T17:43:13.129Z,7.59
2023-03-20T17:45:47.641Z,7.57
2023-03-20T17:48:25.847Z,7.48
2023-03-20T17:51:02.559Z,7.41
2023-03-20T17:53:35.565Z,7.36
2023-03-20T17:56:15.042Z,7.32
2023-03-20T17:58:47.887Z,7.21
2023-03-20T18:01:20.995Z,7.21
2023-03-20T18:03:54.285Z,7.15
2023-03-20T18:06:30.564Z,7.19
2023-03-20T18:09:05.042Z,7.22
2023-03-20T18:11:38.191Z,7.14
2023-03-20T18:14:12.487Z,7.06
2023-03-20T18:16:45.507Z,6.87
2023-03-20T18:19:25.812Z,6.75
2023-03-20T18:21:59.788Z,6.58
2023-03-20T18:24:32.915Z,6.55
2023-03-20T18:27:06.116Z,6.44
2023-03-20T18:29:39.213Z,6.35
2023-03-20T18:32:12.286Z,6.18
2023-03-20T18:35:20.503Z,6.04
2023-03-20T18:37:53.093Z,5.93
2023-03-20T18:40:28.263Z,5.84
2023-03-20T18:43:01.414Z,5.89
2023-03-20T18:45:40.265Z,5.82
2023-03-20T18:51:30.891Z,5.56
2023-03-20T18:54:06.293Z,5.48
2023-03-20T18:56:40.801Z,5.52
2023-03-20T18:59:19.759Z,5.54
2023-03-20T19:01:53.438Z,5.53
2023-03-20T19:04:27.244Z,5.55
2023-03-20T19:07:00.311Z,5.54
2023-03-20T19:09:33.807Z,5.57
2023-03-20T19:12:11.704Z,5.62
2023-03-20T19:14:45.391Z,5.60
2023-03-20T19:17:20.716Z,5.51
2023-03-20T19:19:56.093Z,5.43
2023-03-20T19:22:31.692Z,5.41
2023-03-20T19:25:07.108Z,5.42
2023-03-20T19:27:43.886Z,5.35
2023-03-20T19:30:33.508Z,5.35
2023-03-20T19:33:08.403Z,5.30
2023-03-20T19:36:02.236Z,5.23
2023-03-20T19:38:23.786Z,5.16
2023-03-20T19:40:57.981Z,5.15
2023-03-20T19:43:32.369Z,5.19
2023-03-20T19:46:09.657Z,5.20
2023-03-20T19:48:50.604Z,5.17
2023-03-20T19:51:21.628Z,5.04
2023-03-20T19:53:55.834Z,5.06
2023-03-20T19:56:28.890Z,5.05
2023-03-20T19:59:03.183Z,5.04
2023-03-20T20:01:38.966Z,4.69
2023-03-20T20:04:11.929Z,4.89
2023-03-20T20:06:47.508Z,4.90
2023-03-20T20:09:20.658Z,4.93
2023-03-20T20:11:53.702Z,4.97
2023-03-20T20:14:26.818Z,4.99
2023-03-20T20:16:59.902Z,4.90
2023-03-20T20:19:32.820Z,4.93
2023-03-20T20:22:24.979Z,4.98
2023-03-20T20:24:41.512Z,4.99
2023-03-20T20:27:17.448Z,5.01
2023-03-20T20:29:51.614Z,5.01
2023-03-20T20:32:26.986Z,4.92
2023-03-20T20:38:21.217Z,4.88
2023-03-20T20:40:15.655Z,4.94
2023-03-20T20:42:50.586Z,4.97
2023-03-20T20:45:26.118Z,5.00
2023-03-20T20:47:59.174Z,4.96
2023-03-20T20:50:36.099Z,4.89
2023-03-20T20:53:09.354Z,4.90
2023-03-20T20:55:42.420Z,4.86
2023-03-20T20:58:15.607Z,4.84
2023-03-20T21:00:54.008Z,4.84
2023-03-20T21:03:24.581Z,4.83
2023-03-20T21:05:57.719Z,4.85
2023-03-20T21:08:30.819Z,4.86
2023-03-20T21:11:03.851Z,4.86
2023-03-20T21:13:38.214Z,4.83
2023-03-20T21:16:13.163Z,4.74
2023-03-20T21:18:46.552Z,4.72
2023-03-20T21:21:19.514Z,4.76
2023-03-20T21:23:55.563Z,4.79
2023-03-20T21:26:28.692Z,4.80
2023-03-20T21:29:02.073Z,4.81
2023-03-20T21:31:35.264Z,4.78
2023-03-20T21:34:08.332Z,4.73
2023-03-20T21:36:41.320Z,4.68
2023-03-20T21:39:15.509Z,4.72
2023-03-20T21:41:48.887Z,4.69
2023-03-20T21:44:56.030Z,4.65
2023-03-20T21:47:55.693Z,4.59
2023-03-20T21:52:59.902Z,4.56
2023-03-20T21:57:55.727Z,4.46
2023-03-20T22:00:47.762Z,4.41
2023-03-20T22:02:35.372Z,4.38
2023-03-20T22:05:48.456Z,4.33
2023-03-20T22:08:48.624Z,4.29
2023-03-20T22:21:27.400Z,4.22
2023-03-20T22:24:05.816Z,4.20
2023-03-20T22:26:58.362Z,4.19
2023-03-20T22:29:17.748Z,4.19
2023-03-20T22:34:30.832Z,4.28
2023-03-20T22:37:16.394Z,4.32
2023-03-20T22:39:36.604Z,4.34
2023-03-20T22:42:28.665Z,4.38
2023-03-20T22:44:56.806Z,4.42
2023-03-20T22:46:47.557Z,4.43
2023-03-20T22:49:20.885Z,4.47
2023-03-20T22:52:11.706Z,4.46
2023-03-20T22:54:30.161Z,4.47
2023-03-20T22:57:03.635Z,4.45
2023-03-20T22:59:36.558Z,4.44
2023-03-20T23:02:11.013Z,4.43
2023-03-20T23:04:44.212Z,4.40
2023-03-20T23:07:17.375Z,4.36
2023-03-20T23:09:50.978Z,4.29
2023-03-20T23:12:23.945Z,4.27
2023-03-20T23:14:58.049Z,4.24
2023-03-20T23:17:33.827Z,4.22
2023-03-20T23:20:15.310Z,4.22
2023-03-20T23:22:46.712Z,4.21
2023-03-20T23:25:37.876Z,4.15
2023-03-20T23:27:55.660Z,4.13
2023-03-20T23:30:37.852Z,4.12
2023-03-20T23:33:03.874Z,3.87
2023-03-20T23:35:36.795Z,4.11
2023-03-20T23:38:09.838Z,4.07
2023-03-20T23:40:45.740Z,4.09
2023-03-20T23:43:19.041Z,4.09
2023-03-20T23:45:52.068Z,4.07
2023-03-20T23:48:25.276Z,4.05
2023-03-20T23:50:58.207Z,4.02
2023-03-20T23:53:38.880Z,3.99
2023-03-20T23:56:14.433Z,3.95
2023-03-20T23:58:58.246Z,3.94
